createdAt,value
2022-08-04T00:01:17.799Z,4.3
2022-08-04T00:03:18.808Z,4.3
2022-08-04T00:05:22.665Z,4.6
2022-08-04T00:07:18.181Z,5.2
2022-08-04T00:09:19.016Z,4.7
2022-08-04T00:11:15.334Z,5.1
2022-08-04T00:13:13.801Z,4.4
2022-08-04T00:15:16.545Z,4.8
2022-08-04T00:17:18.103Z,4.4
2022-08-04T00:19:23.810Z,4.1
2022-08-04T00:21:18.197Z,4.1
2022-08-04T00:23:16.184Z,4.3
2022-08-04T00:25:14.843Z,4.6
2022-08-04T00:27:15.721Z,4.8
2022-08-04T00:29:15.741Z,4.5
2022-08-04T00:31:16.156Z,5.2
2022-08-04T00:33:18.872Z,5.1
2022-08-04T00:35:16.431Z,5
2022-08-04T00:37:20.719Z,4.3
2022-08-04T00:39:17.096Z,4.7
2022-08-04T00:41:29.986Z,4.6
2022-08-04T00:43:26.349Z,4.4
2022-08-04T00:46:00.693Z,4.6
2022-08-04T00:47:35.978Z,4
2022-08-04T00:49:41.200Z,4.1
2022-08-04T00:51:36.817Z,4.3
2022-08-04T00:53:30.754Z,4.4
2022-08-04T00:55:36.098Z,4.6
2022-08-04T00:57:34.416Z,4.3
2022-08-04T00:59:34.125Z,4.1
2022-08-04T01:01:35.781Z,4.5
2022-08-04T01:03:29.863Z,4.2
2022-08-04T01:05:28.433Z,4.1
2022-08-04T01:07:36.308Z,4.5
2022-08-04T01:09:35.756Z,4.5
2022-08-04T01:11:57.698Z,4.6
2022-08-04T01:13:35.356Z,4.2
2022-08-04T01:15:29.672Z,4.1
2022-08-04T01:17:27.879Z,4.2
2022-08-04T01:19:52.246Z,4.1
2022-08-04T01:21:51.992Z,4.3
2022-08-04T01:23:52.489Z,4.6
2022-08-04T01:25:53.003Z,4.4
2022-08-04T01:27:34.831Z,4
2022-08-04T01:29:27.480Z,4.6
2022-08-04T01:31:31.446Z,4.3
2022-08-04T01:33:29.107Z,4.7
2022-08-04T01:35:46.703Z,4.8
2022-08-04T01:37:36.721Z,4.4
2022-08-04T01:39:34.085Z,4.3
2022-08-04T01:41:32.488Z,4.5
2022-08-04T01:43:27.644Z,4.4
2022-08-04T01:45:28.918Z,4.2
2022-08-04T01:47:29.555Z,4.1
2022-08-04T01:49:29.428Z,4.2
2022-08-04T01:51:27.008Z,4.1
2022-08-04T01:53:31.329Z,4.1
2022-08-04T01:55:54.517Z,4.1
2022-08-04T01:57:37.540Z,3.6
2022-08-04T01:59:30.235Z,4
2022-08-04T02:01:28.431Z,4.2
2022-08-04T02:04:20.079Z,4.3
2022-08-04T02:06:03.460Z,4.4
2022-08-04T02:07:44.675Z,4.3
2022-08-04T02:09:54.624Z,4.1
2022-08-04T02:11:31.042Z,4.3
2022-08-04T02:13:37.862Z,4
2022-08-04T02:15:38.514Z,4
2022-08-04T02:17:42.996Z,4.2
2022-08-04T02:19:35.296Z,3.7
2022-08-04T02:21:42.107Z,3.9
2022-08-04T02:23:36.175Z,3.6
2022-08-04T02:25:38.809Z,3.9
2022-08-04T02:28:00.135Z,3.9
2022-08-04T02:29:39.949Z,4.1
2022-08-04T02:31:38.107Z,4.2
2022-08-04T02:33:37.233Z,4.2
2022-08-04T02:35:37.654Z,3.9
2022-08-04T02:37:34.941Z,4.1
2022-08-04T02:39:48.736Z,3.9
2022-08-04T02:41:34.809Z,4.1
2022-08-04T02:43:51.496Z,4.4
2022-08-04T02:45:36.558Z,4.1
2022-08-04T02:48:23.590Z,3.9
2022-08-04T02:49:36.600Z,3.9
2022-08-04T02:51:37.332Z,3.8
2022-08-04T02:53:37.035Z,3.7
2022-08-04T02:55:37.328Z,4
2022-08-04T02:57:39.285Z,4.1
2022-08-04T02:59:52.969Z,4.1
2022-08-04T03:01:56.528Z,3.9
2022-08-04T03:03:44.172Z,4.1
2022-08-04T03:06:01.013Z,4
2022-08-04T03:08:05.045Z,3.7
2022-08-04T03:10:04.104Z,3.9
2022-08-04T03:12:05.538Z,4
2022-08-04T03:14:06.111Z,4
2022-08-04T03:16:00.398Z,3.5
2022-08-04T03:18:00.880Z,3.9
2022-08-04T03:20:04.451Z,4.1
2022-08-04T03:21:59.847Z,3.9
2022-08-04T03:23:59.473Z,5.5
2022-08-04T03:26:01.455Z,5.1
2022-08-04T03:28:05.184Z,5.2
2022-08-04T03:30:04.027Z,4.5
2022-08-04T03:32:13.936Z,4.1
2022-08-04T03:34:00.255Z,3.8
2022-08-04T03:36:19.983Z,3.8
2022-08-04T03:38:10.814Z,3.9
2022-08-04T03:40:22.629Z,3.5
2022-08-04T03:42:08.447Z,3.9
2022-08-04T03:44:05.428Z,4.1
2022-08-04T03:46:08.127Z,3.5
2022-08-04T03:48:04.712Z,4
2022-08-04T03:50:14.434Z,3.6
2022-08-04T03:51:59.128Z,3.6
2022-08-04T03:54:08.221Z,3.7
2022-08-04T03:56:13.958Z,3.9
2022-08-04T03:58:14.310Z,3.9
2022-08-04T04:00:01.877Z,4
2022-08-04T04:02:10.138Z,4.2
2022-08-04T04:04:17.413Z,3.9
2022-08-04T04:06:12.270Z,3.8
2022-08-04T04:08:19.084Z,3.8
2022-08-04T04:10:12.032Z,3.7
2022-08-04T04:12:09.643Z,3.5
2022-08-04T04:14:14.691Z,4.1
2022-08-04T04:16:09.624Z,4
2022-08-04T04:18:15.382Z,4.3
2022-08-04T04:20:07.698Z,6.1
2022-08-04T04:22:09.551Z,4.9
2022-08-04T04:24:05.085Z,4
2022-08-04T04:26:05.825Z,3.9
2022-08-04T04:28:45.080Z,4.4
2022-08-04T04:30:02.946Z,4.8
2022-08-04T04:32:09.664Z,3.8
2022-08-04T04:34:08.184Z,6.2
2022-08-04T04:36:10.252Z,4.9
2022-08-04T04:38:19.256Z,4.7
2022-08-04T04:40:12.645Z,4.4
2022-08-04T04:42:12.608Z,4.3
2022-08-04T04:44:28.715Z,5.6
2022-08-04T04:46:10.291Z,4.2
2022-08-04T04:48:10.615Z,5.1
2022-08-04T04:50:09.051Z,4.9
2022-08-04T04:52:12.960Z,4.9
2022-08-04T04:54:10.531Z,5.1
2022-08-04T04:56:11.422Z,4.2
2022-08-04T04:58:13.206Z,3.9
2022-08-04T05:00:09.095Z,3.7
2022-08-04T05:02:31.797Z,3.3
2022-08-04T05:04:24.547Z,4.2
2022-08-04T05:06:20.857Z,4.1
2022-08-04T05:08:44.188Z,4.3
2022-08-04T05:10:26.807Z,3.9
2022-08-04T05:14:31.939Z,4
2022-08-04T05:14:37.122Z,3.5
2022-08-04T05:16:18.521Z,3.5
2022-08-04T05:18:23.833Z,3.3
2022-08-04T05:20:19.452Z,3.4
2022-08-04T05:22:21.739Z,3
2022-08-04T05:24:18.841Z,2.9
2022-08-04T05:26:18.336Z,3
2022-08-04T05:28:21.151Z,2.8
2022-08-04T05:30:18.798Z,2.7
2022-08-04T05:32:22.536Z,3.1
2022-08-04T05:34:23.294Z,2.9
2022-08-04T05:36:35.371Z,3.3
2022-08-04T05:38:25.608Z,3.2
2022-08-04T05:40:22.554Z,3.1
2022-08-04T05:42:23.373Z,2.9
2022-08-04T05:44:25.229Z,2.8
2022-08-04T05:46:24.269Z,2.5
2022-08-04T05:48:25.330Z,2.7
2022-08-04T05:50:25.304Z,2.4
2022-08-04T05:52:26.324Z,2.4
2022-08-04T05:54:27.993Z,2.5
2022-08-04T05:56:29.072Z,2.8
2022-08-04T05:58:29.860Z,2.9
2022-08-04T06:00:40.808Z,2.4
2022-08-04T06:02:30.183Z,2.9
2022-08-04T06:04:32.760Z,2.5
2022-08-04T06:06:31.483Z,3
2022-08-04T06:08:31.958Z,2.5
2022-08-04T06:10:37.103Z,2.3
2022-08-04T06:12:39.317Z,2.4
2022-08-04T06:14:38.751Z,2.7
2022-08-04T06:16:38.051Z,2.4
2022-08-04T06:20:01.048Z,2.3
2022-08-04T06:20:39.994Z,2.7
2022-08-04T06:22:41.436Z,2.4
2022-08-04T06:24:39.822Z,2.3
2022-08-04T06:26:39.217Z,2.3
2022-08-04T06:28:42.432Z,2.4
2022-08-04T06:30:41.838Z,2
2022-08-04T06:32:43.575Z,2.7
2022-08-04T06:34:42.557Z,2.5
2022-08-04T06:36:43.742Z,2.7
2022-08-04T06:38:44.429Z,2.3
2022-08-04T06:40:44.243Z,2.7
2022-08-04T06:42:46.033Z,2.3
2022-08-04T06:44:50.382Z,2.3
2022-08-04T06:46:47.461Z,2.4
2022-08-04T06:48:49.074Z,2.6
2022-08-04T06:51:32.710Z,2.2
2022-08-04T06:52:48.905Z,2.3
2022-08-04T06:54:51.766Z,2.1
2022-08-04T06:56:52.455Z,2.4
2022-08-04T06:58:52.297Z,2.4
2022-08-04T07:00:53.972Z,2.3
2022-08-04T07:02:53.880Z,2.4
2022-08-04T07:04:54.347Z,2.4
2022-08-04T07:06:54.761Z,2.3
2022-08-04T07:08:55.330Z,2.6
2022-08-04T07:10:57.855Z,2.1
2022-08-04T07:12:57.752Z,2.8
2022-08-04T07:14:58.365Z,2.1
2022-08-04T07:16:59.169Z,2.5
2022-08-04T07:18:59.034Z,2.6
2022-08-04T07:21:00.235Z,2.3
2022-08-04T07:23:00.702Z,2.1
2022-08-04T07:25:01.485Z,2.1
2022-08-04T07:27:03.837Z,2.1
2022-08-04T07:29:03.190Z,1.9
2022-08-04T07:31:05.475Z,2.2
2022-08-04T07:33:06.061Z,2.3
2022-08-04T07:35:06.472Z,2
2022-08-04T07:37:06.128Z,2.4
2022-08-04T07:39:06.505Z,2.4
2022-08-04T07:43:08.651Z,2.1
2022-08-04T07:45:10.756Z,2.2
2022-08-04T07:47:09.282Z,2.1
2022-08-04T07:49:10.331Z,2.3
2022-08-04T07:51:10.972Z,2.3
2022-08-04T07:53:55.529Z,2.4
2022-08-04T07:55:12.921Z,2.5
2022-08-04T07:57:19.425Z,2.8
2022-08-04T07:59:14.072Z,2.4
2022-08-04T08:01:14.486Z,2.4
2022-08-04T08:03:15.735Z,2
2022-08-04T08:05:18.045Z,2.2
2022-08-04T08:07:18.750Z,2.1
2022-08-04T08:09:18.726Z,16.2
2022-08-04T08:11:18.379Z,2.8
2022-08-04T08:13:18.349Z,2.4
2022-08-04T08:15:20.239Z,2
2022-08-04T08:17:19.767Z,2.1
2022-08-04T08:19:20.465Z,2.1
2022-08-04T08:21:21.282Z,2.3
2022-08-04T08:23:21.945Z,2.5
2022-08-04T08:25:22.107Z,2.2
2022-08-04T08:27:23.278Z,2.3
2022-08-04T08:29:25.012Z,2.5
2022-08-04T08:31:27.732Z,3.3
2022-08-04T08:33:39.981Z,2.3
2022-08-04T08:35:27.632Z,1.9
2022-08-04T08:37:33.586Z,2
2022-08-04T08:39:35.202Z,1.9
2022-08-04T08:41:51.895Z,2.2
2022-08-04T08:44:06.394Z,2
2022-08-04T08:45:45.030Z,1.8
2022-08-04T08:48:05.112Z,1.8
2022-08-04T08:50:01.955Z,2.1
2022-08-04T08:51:44.072Z,2
2022-08-04T08:53:49.398Z,2
2022-08-04T08:55:45.243Z,2
2022-08-04T08:57:43.962Z,2.4
2022-08-04T08:59:48.018Z,2.7
2022-08-04T09:01:52.254Z,3
2022-08-04T09:03:54.158Z,2.2
2022-08-04T09:05:55.567Z,2.2
2022-08-04T09:07:57.216Z,2.4
2022-08-04T09:09:57.569Z,2.1
2022-08-04T09:11:43.241Z,2.1
2022-08-04T09:13:44.513Z,2.2
2022-08-04T09:15:48.123Z,2.3
2022-08-04T09:17:46.663Z,2.4
2022-08-04T09:19:49.249Z,2.4
2022-08-04T09:21:50.162Z,2.2
2022-08-04T09:23:48.355Z,2.1
2022-08-04T09:25:49.040Z,2.1
2022-08-04T09:27:49.441Z,2.3
2022-08-04T09:29:51.384Z,1.9
2022-08-04T09:32:06.669Z,2.3
2022-08-04T09:33:54.475Z,2.2
2022-08-04T09:35:54.123Z,1.9
2022-08-04T09:37:59.707Z,1.9
2022-08-04T09:39:56.127Z,2.1
2022-08-04T09:41:59.542Z,2
2022-08-04T09:43:59.151Z,1.8
2022-08-04T09:46:00.220Z,1.8
2022-08-04T09:47:56.706Z,2.1
2022-08-04T09:49:57.225Z,1.9
2022-08-04T09:52:05.675Z,1.8
2022-08-04T09:54:00.631Z,2.2
2022-08-04T09:56:03.531Z,1.8
2022-08-04T09:57:57.182Z,2
2022-08-04T10:00:01.871Z,2.6
2022-08-04T10:01:58.848Z,2.2
2022-08-04T10:03:59.371Z,2.4
2022-08-04T10:06:09.583Z,2.2
2022-08-04T10:08:16.102Z,2.3
2022-08-04T10:10:11.102Z,1.9
2022-08-04T10:12:10.254Z,2.2
2022-08-04T10:14:03.105Z,2.1
2022-08-04T10:16:17.541Z,3
2022-08-04T10:18:16.377Z,2.9
2022-08-04T10:20:07.182Z,2.1
2022-08-04T10:22:29.130Z,2.2
2022-08-04T10:24:17.823Z,1.8
2022-08-04T10:26:12.522Z,2.2
2022-08-04T10:28:08.512Z,2
2022-08-04T10:30:05.958Z,1.8
2022-08-04T10:32:08.673Z,1.8
2022-08-04T10:34:12.222Z,2.2
2022-08-04T10:36:08.648Z,2
2022-08-04T10:38:15.159Z,1.8
2022-08-04T10:40:11.613Z,2
2022-08-04T10:42:19.939Z,2
2022-08-04T10:44:19.296Z,2.1
2022-08-04T10:46:09.689Z,1.8
2022-08-04T10:48:17.175Z,2.1
2022-08-04T10:50:10.959Z,2.3
2022-08-04T10:52:17.471Z,2.1
2022-08-04T10:54:14.263Z,2.3
2022-08-04T10:56:15.203Z,3.1
2022-08-04T10:58:17.887Z,2.8
2022-08-04T11:00:13.784Z,3
2022-08-04T11:02:25.175Z,2.8
2022-08-04T11:04:27.479Z,2.7
2022-08-04T11:06:13.670Z,2
2022-08-04T11:08:20.675Z,2.3
2022-08-04T11:10:16.305Z,2.5
2022-08-04T11:12:19.025Z,2
2022-08-04T11:14:18.717Z,1.9
2022-08-04T11:16:21.694Z,2.1
2022-08-04T11:18:24.809Z,2.3
2022-08-04T11:20:35.511Z,2.5
2022-08-04T11:22:24.776Z,2.4
2022-08-04T11:24:26.151Z,2.8
2022-08-04T11:26:23.916Z,1.9
2022-08-04T11:28:32.228Z,2.3
2022-08-04T11:30:22.358Z,2.1
2022-08-04T11:32:31.372Z,2.8
2022-08-04T11:34:23.462Z,2.7
2022-08-04T11:36:32.142Z,2.2
2022-08-04T11:38:32.304Z,2.6
2022-08-04T11:40:32.389Z,2.9
2022-08-04T11:42:28.030Z,2.7
2022-08-04T11:44:32.035Z,2.2
2022-08-04T11:46:33.881Z,1.8
2022-08-04T11:48:33.074Z,1.9
2022-08-04T11:50:32.410Z,1.8
2022-08-04T11:52:29.581Z,2.1
2022-08-04T11:54:30.066Z,1.9
2022-08-04T11:56:35.915Z,2.3
2022-08-04T11:58:29.871Z,2.6
2022-08-04T12:00:31.571Z,2.9
2022-08-04T12:02:58.041Z,3.2
2022-08-04T12:04:44.647Z,2.4
2022-08-04T12:06:41.858Z,2.6
2022-08-04T12:08:42.948Z,2.5
2022-08-04T12:10:44.431Z,2.1
2022-08-04T12:12:43.074Z,3.2
2022-08-04T12:14:46.451Z,1.9
2022-08-04T12:16:41.564Z,2.2
2022-08-04T12:18:38.575Z,2.9
2022-08-04T12:20:42.409Z,2
2022-08-04T12:22:43.055Z,3.6
2022-08-04T12:24:43.753Z,2.2
2022-08-04T12:26:44.095Z,2
2022-08-04T12:29:08.635Z,2
2022-08-04T12:30:57.355Z,4.5
2022-08-04T12:32:48.138Z,1.9
2022-08-04T12:34:48.684Z,2.4
2022-08-04T12:36:51.249Z,2
2022-08-04T12:38:48.884Z,2.1
2022-08-04T12:40:47.968Z,1.9
2022-08-04T12:42:56.021Z,1.7
2022-08-04T12:44:45.830Z,1.7
2022-08-04T12:46:46.254Z,1.7
2022-08-04T12:48:47.659Z,2
2022-08-04T12:50:49.253Z,1.7
2022-08-04T12:53:01.542Z,2
2022-08-04T12:54:51.666Z,1.9
2022-08-04T12:56:47.894Z,2
2022-08-04T12:58:51.479Z,1.8
2022-08-04T13:00:53.460Z,1.8
2022-08-04T13:02:50.059Z,1.9
2022-08-04T13:04:51.695Z,1.8
2022-08-04T13:06:56.081Z,1.7
2022-08-04T13:08:50.697Z,2.2
2022-08-04T13:10:56.659Z,1.7
2022-08-04T13:12:56.142Z,1.9
2022-08-04T13:15:09.708Z,1.7
2022-08-04T13:16:57.529Z,2
2022-08-04T13:18:54.890Z,1.8
2022-08-04T13:20:54.849Z,2.2
2022-08-04T13:23:03.048Z,1.8
2022-08-04T13:26:40.681Z,1.8
2022-08-04T13:27:03.636Z,1.7
2022-08-04T13:29:01.825Z,2
2022-08-04T13:31:01.741Z,1.9
2022-08-04T13:33:00.474Z,2.2
2022-08-04T13:35:00.993Z,2.4
2022-08-04T13:37:00.947Z,1.8
2022-08-04T13:39:04.976Z,2
2022-08-04T13:41:03.821Z,2.3
2022-08-04T13:43:01.803Z,2.1
2022-08-04T13:45:03.158Z,2
2022-08-04T13:47:06.355Z,2.1
2022-08-04T13:49:30.972Z,2.1
2022-08-04T13:51:05.222Z,1.9
2022-08-04T13:53:03.774Z,1.9
2022-08-04T13:55:06.612Z,2
2022-08-04T13:57:11.856Z,2.3
2022-08-04T13:59:10.260Z,1.7
2022-08-04T14:01:12.622Z,1.8
2022-08-04T14:03:22.924Z,2.1
2022-08-04T14:05:18.167Z,2.1
2022-08-04T14:07:17.746Z,2
2022-08-04T14:09:13.917Z,2
2022-08-04T14:11:10.181Z,2.3
2022-08-04T14:13:09.862Z,1.8
2022-08-04T14:15:29.239Z,2.1
2022-08-04T14:17:19.733Z,1.7
2022-08-04T14:19:11.662Z,1.8
2022-08-04T14:21:14.543Z,2.1
2022-08-04T14:23:12.656Z,3.2
2022-08-04T14:25:16.801Z,2.3
2022-08-04T14:27:13.876Z,2.1
2022-08-04T14:29:27.099Z,2.8
2022-08-04T14:31:17.372Z,2.9
2022-08-04T14:34:01.431Z,2
2022-08-04T14:35:16.199Z,2.2
2022-08-04T14:37:19.631Z,2.3
2022-08-04T14:39:17.453Z,2.4
2022-08-04T14:41:20.383Z,2
2022-08-04T14:43:18.448Z,1.9
2022-08-04T14:45:27.547Z,2.5
2022-08-04T14:47:38.254Z,2.2
2022-08-04T14:49:20.577Z,2.2
2022-08-04T14:51:26.333Z,1.7
2022-08-04T14:53:23.079Z,2
2022-08-04T14:55:24.324Z,2.1
2022-08-04T14:57:22.650Z,2
2022-08-04T14:59:24.140Z,2.1
2022-08-04T15:01:24.105Z,2.1
2022-08-04T15:03:24.789Z,2.1
2022-08-04T15:05:55.075Z,2.2
2022-08-04T15:07:26.005Z,2
2022-08-04T15:09:26.173Z,2
2022-08-04T15:11:28.129Z,2
2022-08-04T15:13:27.093Z,2.4
2022-08-04T15:15:37.035Z,1.9
2022-08-04T15:17:41.580Z,1.8
2022-08-04T15:19:30.564Z,2.1
2022-08-04T15:21:30.226Z,2.2
2022-08-04T15:23:37.267Z,2.4
2022-08-04T15:25:33.261Z,2.4
2022-08-04T15:27:35.336Z,2
2022-08-04T15:29:59.914Z,2.2
2022-08-04T15:32:05.965Z,2.2
2022-08-04T15:33:34.370Z,2.1
2022-08-04T15:35:39.124Z,2.1
2022-08-04T15:37:45.421Z,2.3
2022-08-04T15:39:43.971Z,2.5
2022-08-04T15:41:46.241Z,2.2
2022-08-04T15:43:55.353Z,2.1
2022-08-04T15:46:04.401Z,2.3
2022-08-04T15:47:36.973Z,2.5
2022-08-04T15:49:37.714Z,1.9
2022-08-04T15:51:37.938Z,2.3
2022-08-04T15:54:16.805Z,2.5
2022-08-04T15:55:40.546Z,2.1
2022-08-04T15:57:58.040Z,2.4
2022-08-04T15:59:56.317Z,2.6
2022-08-04T16:01:41.009Z,2.4
2022-08-04T16:03:55.382Z,2.3
2022-08-04T16:05:42.066Z,2.1
2022-08-04T16:07:57.951Z,2.5
2022-08-04T16:09:46.383Z,2.6
2022-08-04T16:11:43.758Z,2.8
2022-08-04T16:14:09.133Z,2.4
2022-08-04T16:15:47.713Z,2.7
2022-08-04T16:17:45.450Z,2.9
2022-08-04T16:20:07.167Z,2.9
2022-08-04T16:21:49.094Z,3.2
2022-08-04T16:24:00.598Z,2.9
2022-08-04T16:25:47.856Z,2.5
2022-08-04T16:27:48.360Z,2.8
2022-08-04T16:30:03.425Z,2.8
2022-08-04T16:32:06.654Z,3.3
2022-08-04T16:34:04.833Z,3.1
2022-08-04T16:35:50.601Z,3.4
2022-08-04T16:37:53.322Z,3.3
2022-08-04T16:40:21.246Z,3.4
2022-08-04T16:41:52.566Z,3.5
2022-08-04T16:44:50.487Z,3.7
2022-08-04T16:45:55.611Z,3.3
2022-08-04T16:48:02.648Z,2.8
2022-08-04T16:50:01.599Z,3.1
2022-08-04T16:52:00.748Z,3.4
2022-08-04T16:54:04.613Z,4.2
2022-08-04T16:55:56.432Z,3.4
2022-08-04T16:57:57.908Z,3.7
2022-08-04T16:59:57.359Z,3.9
2022-08-04T17:01:58.092Z,3.9
2022-08-04T17:03:58.408Z,4.2
2022-08-04T17:06:08.202Z,4.9
2022-08-04T17:08:28.050Z,5.5
2022-08-04T17:10:00.033Z,5.8
2022-08-04T17:12:00.617Z,7.2
2022-08-04T17:14:05.399Z,6.6
2022-08-04T17:16:06.921Z,4.6
2022-08-04T17:18:18.694Z,4.9
2022-08-04T17:20:03.476Z,4.1
2022-08-04T17:22:06.396Z,4.2
2022-08-04T17:24:15.619Z,3.9
2022-08-04T17:26:08.046Z,4.6
2022-08-04T17:28:09.650Z,5.2
2022-08-04T17:30:28.379Z,4.9
2022-08-04T17:32:06.263Z,5.3
2022-08-04T17:34:15.700Z,4.8
2022-08-04T17:36:08.348Z,5.2
2022-08-04T17:38:07.773Z,5
2022-08-04T17:40:12.052Z,5.3
2022-08-04T17:42:08.859Z,4.5
2022-08-04T17:44:09.326Z,4.7
2022-08-04T17:46:29.781Z,4.9
2022-08-04T17:48:24.224Z,4.5
2022-08-04T17:50:22.826Z,4
2022-08-04T17:52:41.506Z,4.2
2022-08-04T17:54:16.873Z,3.9
2022-08-04T17:56:30.021Z,3.7
2022-08-04T17:58:21.082Z,3.8
2022-08-04T18:00:19.562Z,3.6
2022-08-04T18:02:21.559Z,3.6
2022-08-04T18:04:37.798Z,3.7
2022-08-04T18:06:15.074Z,3.8
2022-08-04T18:08:39.960Z,3.9
2022-08-04T18:10:34.900Z,3.2
2022-08-04T18:12:22.195Z,3.5
2022-08-04T18:14:17.025Z,3.5
2022-08-04T18:16:22.582Z,3.7
2022-08-04T18:18:23.390Z,3.6
2022-08-04T18:20:19.984Z,3.6
2022-08-04T18:22:28.342Z,4.3
2022-08-04T18:24:19.500Z,5.2
2022-08-04T18:26:23.821Z,5.2
2022-08-04T18:28:26.708Z,8
2022-08-04T18:30:38.431Z,7.5
2022-08-04T18:32:21.569Z,6.9
2022-08-04T18:34:24.377Z,8.3
2022-08-04T18:36:33.282Z,8.6
2022-08-04T18:38:23.967Z,9
2022-08-04T18:40:31.156Z,9
2022-08-04T18:42:23.828Z,8.3
2022-08-04T18:44:27.436Z,9.8
2022-08-04T18:46:27.076Z,9.4
2022-08-04T18:48:35.979Z,9.7
2022-08-04T18:51:01.121Z,9.4
2022-08-04T18:52:26.192Z,9.3
2022-08-04T18:54:26.665Z,11.3
2022-08-04T18:56:32.644Z,10.5
2022-08-04T18:58:28.041Z,9.6
2022-08-04T19:00:28.303Z,10
2022-08-04T19:02:28.549Z,10.4
2022-08-04T19:06:30.001Z,11.7
2022-08-04T19:08:34.622Z,12
2022-08-04T19:10:30.222Z,12.3
2022-08-04T19:12:30.742Z,12.5
2022-08-04T19:14:31.131Z,13.3
2022-08-04T19:16:33.101Z,13.2
2022-08-04T19:18:32.147Z,11.9
2022-08-04T19:20:32.714Z,12.6
2022-08-04T19:22:36.180Z,11.8
2022-08-04T19:24:34.768Z,11.6
2022-08-04T19:26:35.488Z,11.4
2022-08-04T19:28:36.278Z,10.2
2022-08-04T19:30:34.600Z,10.9
2022-08-04T19:32:35.048Z,10.3
2022-08-04T19:34:35.832Z,10
2022-08-04T19:36:35.883Z,9.3
2022-08-04T19:38:37.400Z,8.9
2022-08-04T19:40:38.206Z,8.4
2022-08-04T19:42:37.279Z,8.8
2022-08-04T19:44:44.528Z,11.2
2022-08-04T19:46:37.971Z,9.9
2022-08-04T19:48:38.550Z,9.8
2022-08-04T19:50:39.670Z,9.4
2022-08-04T19:52:39.271Z,9.8
2022-08-04T19:54:40.698Z,7.6
2022-08-04T19:56:41.397Z,7.8
2022-08-04T19:58:40.402Z,8.1
2022-08-04T20:00:44.816Z,8.2
2022-08-04T20:02:41.223Z,8.2
2022-08-04T20:04:41.649Z,8.3
2022-08-04T20:06:42.707Z,7.2
2022-08-04T20:08:47.973Z,7.9
2022-08-04T20:10:51.416Z,6.9
2022-08-04T20:12:43.453Z,8
2022-08-04T20:14:43.624Z,7
2022-08-04T20:16:44.024Z,6.4
2022-08-04T20:20:44.879Z,6.1
2022-08-04T20:22:52.054Z,5.7
2022-08-04T20:24:53.376Z,6
2022-08-04T20:26:46.162Z,5.7
2022-08-04T20:28:52.603Z,5
2022-08-04T20:30:46.821Z,5.1
2022-08-04T20:32:52.600Z,5.3
2022-08-04T20:34:48.218Z,5.6
2022-08-04T20:36:49.997Z,5.1
2022-08-04T20:38:52.770Z,5.1
2022-08-04T20:40:49.501Z,4.8
2022-08-04T20:42:49.206Z,4.6
2022-08-04T20:44:49.606Z,4.5
2022-08-04T20:46:49.971Z,5.1
2022-08-04T20:48:50.547Z,5.2
2022-08-04T20:50:50.895Z,5.5
2022-08-04T20:52:51.132Z,5.6
2022-08-04T20:54:56.319Z,5.1
2022-08-04T20:56:51.979Z,4.3
2022-08-04T20:58:52.442Z,4.4
2022-08-04T21:00:53.301Z,5.3
2022-08-04T21:02:53.138Z,4.7
2022-08-04T21:04:53.812Z,5.4
2022-08-04T21:06:53.952Z,4.9
2022-08-04T21:08:56.814Z,4.6
2022-08-04T21:10:54.663Z,4.5
2022-08-04T21:12:55.082Z,5
2022-08-04T21:14:56.144Z,4.6
2022-08-04T21:16:56.521Z,4.4
2022-08-04T21:18:56.278Z,4.3
2022-08-04T21:20:56.599Z,4.8
2022-08-04T21:22:59.850Z,4.4
2022-08-04T21:24:57.783Z,4.8
2022-08-04T21:26:57.927Z,4.7
2022-08-04T21:28:58.269Z,4.6
2022-08-04T21:30:58.590Z,4.8
2022-08-04T21:32:58.967Z,4.6
2022-08-04T21:35:00.532Z,4.9
2022-08-04T21:36:59.678Z,5.2
2022-08-04T21:39:00.210Z,5.2
2022-08-04T21:41:01.776Z,4.5
2022-08-04T21:43:00.909Z,4.9
2022-08-04T21:45:03.449Z,5.1
2022-08-04T21:47:01.691Z,5.4
2022-08-04T21:49:03.332Z,5.1
2022-08-04T21:51:58.972Z,5.3
2022-08-04T21:53:02.897Z,5.6
2022-08-04T21:55:03.736Z,5.4
2022-08-04T21:57:04.173Z,5.4
2022-08-04T21:59:10.619Z,5.7
2022-08-04T22:01:06.070Z,5.5
2022-08-04T22:03:04.977Z,5
2022-08-04T22:05:07.314Z,5.2
2022-08-04T22:07:05.574Z,5.4
2022-08-04T22:09:09.486Z,6
2022-08-04T22:11:22.959Z,5.4
2022-08-04T22:13:07.840Z,5.3
2022-08-04T22:15:22.922Z,4.9
2022-08-04T22:17:13.536Z,7.9
2022-08-04T22:19:08.784Z,5.1
2022-08-04T22:21:09.631Z,5
2022-08-04T22:25:13.473Z,4.7
2022-08-04T22:27:11.160Z,4.2
2022-08-04T22:29:14.242Z,4.6
2022-08-04T22:31:24.077Z,4.8
2022-08-04T22:33:10.318Z,4.6
2022-08-04T22:35:33.190Z,5.2
2022-08-04T22:37:12.334Z,4.7
2022-08-04T22:39:11.505Z,4.7
2022-08-04T22:41:13.724Z,4.8
2022-08-04T22:43:32.727Z,4.6
2022-08-04T22:45:12.429Z,4.9
2022-08-04T22:47:20.555Z,4.9
2022-08-04T22:49:13.163Z,4.8
2022-08-04T22:51:14.159Z,5
2022-08-04T22:53:18.001Z,5.1
2022-08-04T22:55:14.371Z,5.3
2022-08-04T22:57:14.746Z,5.2
2022-08-04T22:59:15.003Z,5
2022-08-04T23:01:16.177Z,4.9
2022-08-04T23:03:37.157Z,5.3
2022-08-04T23:05:16.265Z,5
2022-08-04T23:07:16.504Z,5
2022-08-04T23:09:16.821Z,4.8
2022-08-04T23:11:17.379Z,4.9
2022-08-04T23:13:17.574Z,4.9
2022-08-04T23:15:18.181Z,4.8
2022-08-04T23:17:18.285Z,5.1
2022-08-04T23:19:18.630Z,5
2022-08-04T23:21:24.700Z,5.5
2022-08-04T23:23:19.393Z,5.2
2022-08-04T23:25:19.794Z,5.1
2022-08-04T23:27:20.128Z,5.3
2022-08-04T23:29:20.448Z,5.5
2022-08-04T23:31:20.861Z,5.4
2022-08-04T23:33:21.201Z,5.7
2022-08-04T23:35:22.535Z,4.8
2022-08-04T23:37:22.096Z,4.9
2022-08-04T23:39:22.300Z,5
2022-08-04T23:41:22.682Z,5.3
2022-08-04T23:43:23.140Z,4.9
2022-08-04T23:45:24.541Z,5.2
2022-08-04T23:48:15.218Z,5.6
2022-08-04T23:49:23.929Z,5
2022-08-04T23:51:24.386Z,5.2
2022-08-04T23:53:24.518Z,5
2022-08-04T23:55:25.958Z,5.4
2022-08-04T23:58:05.148Z,5.2
2022-08-04T23:59:43.840Z,4.9
